Youngtown, Arizona
Current Conditions -  °F | °C
As of 1:47 PM on Saturday 20 Dec 2014 (Local Time) from KGEU Reporting Station
Broken Clouds Broken Clouds  
Wind Chill: 63°   Ceiling: 20000
Heat Index: 63°   Visibility: 20mi
Dew Point: 37°   Wind: 0mph
Humidity: 39%   Direction: NA
Pressure: 30.1"   Gusts: NA
Location:  33.59°N, 112.3°W
Report Text: KGEU 202047Z 00000KT 20SM BKN200 17/03 A3010
Loading
Personal Weather Stations






























Interactive Weather Map New forecast layout! Learn more

10-Day Weather Forecast

Advertisements
Track Severe Weather on mobile